sensor_id;sensor_type;location;lat;lon;timestamp;P1;durP1;ratioP1;P2;durP2;ratioP2
59788;SDS011;47353;51.614;5.530;2022-09-16T00:01:14;9.82;;;3.45;;
59788;SDS011;47353;51.614;5.530;2022-09-16T00:03:44;11.82;;;4.82;;
59788;SDS011;47353;51.614;5.530;2022-09-16T00:06:20;12.90;;;4.55;;
59788;SDS011;47353;51.614;5.530;2022-09-16T00:08:50;13.38;;;4.40;;
59788;SDS011;47353;51.614;5.530;2022-09-16T00:11:18;10.93;;;4.63;;
59788;SDS011;47353;51.614;5.530;2022-09-16T00:13:44;11.55;;;5.28;;
59788;SDS011;47353;51.614;5.530;2022-09-16T00:16:12;9.88;;;4.05;;
59788;SDS011;47353;51.614;5.530;2022-09-16T00:18:41;10.13;;;4.15;;
59788;SDS011;47353;51.614;5.530;2022-09-16T00:21:07;6.68;;;2.92;;
59788;SDS011;47353;51.614;5.530;2022-09-16T00:23:34;10.02;;;3.33;;
59788;SDS011;47353;51.614;5.530;2022-09-16T00:26:00;6.97;;;3.15;;
59788;SDS011;47353;51.614;5.530;2022-09-16T00:28:26;7.25;;;2.72;;
59788;SDS011;47353;51.614;5.530;2022-09-16T00:30:52;7.40;;;3.30;;
59788;SDS011;47353;51.614;5.530;2022-09-16T00:33:17;9.68;;;3.80;;
59788;SDS011;47353;51.614;5.530;2022-09-16T00:35:43;11.57;;;5.00;;
59788;SDS011;47353;51.614;5.530;2022-09-16T00:38:10;20.17;;;6.22;;
59788;SDS011;47353;51.614;5.530;2022-09-16T00:40:42;12.73;;;4.88;;
59788;SDS011;47353;51.614;5.530;2022-09-16T00:43:12;9.10;;;4.30;;
59788;SDS011;47353;51.614;5.530;2022-09-16T00:45:41;9.65;;;3.60;;
59788;SDS011;47353;51.614;5.530;2022-09-16T00:48:11;7.47;;;3.55;;
59788;SDS011;47353;51.614;5.530;2022-09-16T00:50:44;9.50;;;3.40;;
59788;SDS011;47353;51.614;5.530;2022-09-16T00:53:17;7.10;;;3.17;;
59788;SDS011;47353;51.614;5.530;2022-09-16T00:55:49;10.38;;;3.47;;
59788;SDS011;47353;51.614;5.530;2022-09-16T00:58:19;11.20;;;3.63;;
59788;SDS011;47353;51.614;5.530;2022-09-16T01:00:52;7.20;;;3.53;;
59788;SDS011;47353;51.614;5.530;2022-09-16T01:03:18;12.73;;;3.65;;
59788;SDS011;47353;51.614;5.530;2022-09-16T01:05:44;8.45;;;4.05;;
59788;SDS011;47353;51.614;5.530;2022-09-16T01:08:10;10.50;;;3.40;;
59788;SDS011;47353;51.614;5.530;2022-09-16T01:10:36;11.85;;;3.72;;
59788;SDS011;47353;51.614;5.530;2022-09-16T01:13:05;9.18;;;3.20;;
59788;SDS011;47353;51.614;5.530;2022-09-16T01:40:08;10.75;;;3.67;;
59788;SDS011;47353;51.614;5.530;2022-09-16T01:45:10;9.95;;;3.80;;
59788;SDS011;47353;51.614;5.530;2022-09-16T01:47:55;11.90;;;3.88;;
59788;SDS011;47353;51.614;5.530;2022-09-16T01:53:16;11.15;;;4.00;;
59788;SDS011;47353;51.614;5.530;2022-09-16T01:58:41;9.30;;;3.95;;
59788;SDS011;47353;51.614;5.530;2022-09-16T02:01:21;10.13;;;4.20;;
59788;SDS011;47353;51.614;5.530;2022-09-16T02:03:54;10.73;;;5.00;;
59788;SDS011;47353;51.614;5.530;2022-09-16T02:06:26;9.68;;;4.50;;
59788;SDS011;47353;51.614;5.530;2022-09-16T02:08:58;12.82;;;4.40;;
59788;SDS011;47353;51.614;5.530;2022-09-16T02:11:29;13.93;;;4.28;;
59788;SDS011;47353;51.614;5.530;2022-09-16T02:14:00;11.15;;;4.85;;
59788;SDS011;47353;51.614;5.530;2022-09-16T02:19:11;11.63;;;4.70;;
59788;SDS011;47353;51.614;5.530;2022-09-16T02:21:44;8.27;;;4.53;;
59788;SDS011;47353;51.614;5.530;2022-09-16T02:24:13;10.05;;;4.20;;
59788;SDS011;47353;51.614;5.530;2022-09-16T02:26:42;12.90;;;4.68;;
59788;SDS011;47353;51.614;5.530;2022-09-16T02:29:14;7.35;;;4.45;;
59788;SDS011;47353;51.614;5.530;2022-09-16T02:31:44;11.80;;;5.03;;
59788;SDS011;47353;51.614;5.530;2022-09-16T02:34:15;10.85;;;4.30;;
59788;SDS011;47353;51.614;5.530;2022-09-16T02:36:46;11.50;;;4.80;;
59788;SDS011;47353;51.614;5.530;2022-09-16T02:39:17;7.50;;;4.50;;
59788;SDS011;47353;51.614;5.530;2022-09-16T02:41:48;8.23;;;4.47;;
59788;SDS011;47353;51.614;5.530;2022-09-16T02:44:14;16.00;;;4.93;;
59788;SDS011;47353;51.614;5.530;2022-09-16T02:46:48;7.82;;;4.30;;
59788;SDS011;47353;51.614;5.530;2022-09-16T02:54:48;13.27;;;5.07;;
59788;SDS011;47353;51.614;5.530;2022-09-16T02:57:20;10.15;;;5.38;;
59788;SDS011;47353;51.614;5.530;2022-09-16T02:59:46;12.98;;;4.75;;
59788;SDS011;47353;51.614;5.530;2022-09-16T03:02:12;12.32;;;4.60;;
59788;SDS011;47353;51.614;5.530;2022-09-16T03:04:37;13.95;;;3.97;;
59788;SDS011;47353;51.614;5.530;2022-09-16T03:07:07;9.60;;;4.20;;
59788;SDS011;47353;51.614;5.530;2022-09-16T03:09:35;12.20;;;4.57;;
59788;SDS011;47353;51.614;5.530;2022-09-16T03:20:49;6.97;;;2.92;;
59788;SDS011;47353;51.614;5.530;2022-09-16T03:23:41;6.63;;;2.47;;
59788;SDS011;47353;51.614;5.530;2022-09-16T03:31:29;4.97;;;1.95;;
59788;SDS011;47353;51.614;5.530;2022-09-16T03:34:07;5.30;;;1.70;;
59788;SDS011;47353;51.614;5.530;2022-09-16T03:36:40;9.13;;;2.10;;
59788;SDS011;47353;51.614;5.530;2022-09-16T03:39:10;5.50;;;2.08;;
59788;SDS011;47353;51.614;5.530;2022-09-16T03:41:36;6.28;;;1.80;;
59788;SDS011;47353;51.614;5.530;2022-09-16T03:44:02;6.10;;;2.05;;
59788;SDS011;47353;51.614;5.530;2022-09-16T03:46:28;6.88;;;1.65;;
59788;SDS011;47353;51.614;5.530;2022-09-16T03:48:54;7.03;;;2.00;;
59788;SDS011;47353;51.614;5.530;2022-09-16T03:51:20;6.03;;;1.80;;
59788;SDS011;47353;51.614;5.530;2022-09-16T03:53:46;4.13;;;1.90;;
59788;SDS011;47353;51.614;5.530;2022-09-16T03:56:11;5.28;;;1.90;;
59788;SDS011;47353;51.614;5.530;2022-09-16T03:58:36;4.38;;;1.73;;
59788;SDS011;47353;51.614;5.530;2022-09-16T04:01:02;5.18;;;1.70;;
59788;SDS011;47353;51.614;5.530;2022-09-16T04:03:28;4.28;;;1.50;;
59788;SDS011;47353;51.614;5.530;2022-09-16T04:05:53;4.22;;;1.60;;
59788;SDS011;47353;51.614;5.530;2022-09-16T04:08:20;1.88;;;1.38;;
59788;SDS011;47353;51.614;5.530;2022-09-16T04:10:55;2.95;;;1.50;;
59788;SDS011;47353;51.614;5.530;2022-09-16T04:13:21;3.92;;;1.40;;
59788;SDS011;47353;51.614;5.530;2022-09-16T04:15:48;4.47;;;1.55;;
59788;SDS011;47353;51.614;5.530;2022-09-16T04:18:13;2.90;;;1.40;;
59788;SDS011;47353;51.614;5.530;2022-09-16T04:20:39;6.32;;;1.60;;
59788;SDS011;47353;51.614;5.530;2022-09-16T04:23:05;3.75;;;1.48;;
59788;SDS011;47353;51.614;5.530;2022-09-16T04:25:30;6.22;;;1.45;;
59788;SDS011;47353;51.614;5.530;2022-09-16T04:27:55;4.10;;;1.30;;
59788;SDS011;47353;51.614;5.530;2022-09-16T04:30:21;9.18;;;1.73;;
59788;SDS011;47353;51.614;5.530;2022-09-16T04:32:47;7.35;;;1.70;;
59788;SDS011;47353;51.614;5.530;2022-09-16T04:35:16;4.75;;;1.70;;
59788;SDS011;47353;51.614;5.530;2022-09-16T04:37:43;4.15;;;1.60;;
59788;SDS011;47353;51.614;5.530;2022-09-16T04:40:09;5.07;;;1.60;;
59788;SDS011;47353;51.614;5.530;2022-09-16T04:42:34;4.28;;;1.67;;
59788;SDS011;47353;51.614;5.530;2022-09-16T04:45:00;4.30;;;1.40;;
59788;SDS011;47353;51.614;5.530;2022-09-16T04:47:25;8.27;;;1.90;;
59788;SDS011;47353;51.614;5.530;2022-09-16T04:49:50;6.95;;;1.50;;
59788;SDS011;47353;51.614;5.530;2022-09-16T04:52:16;4.82;;;1.20;;
59788;SDS011;47353;51.614;5.530;2022-09-16T04:54:41;7.47;;;1.65;;
59788;SDS011;47353;51.614;5.530;2022-09-16T04:57:07;3.13;;;1.40;;
59788;SDS011;47353;51.614;5.530;2022-09-16T04:59:32;7.35;;;1.67;;
59788;SDS011;47353;51.614;5.530;2022-09-16T05:01:58;4.22;;;1.30;;
59788;SDS011;47353;51.614;5.530;2022-09-16T05:04:24;5.35;;;1.35;;
59788;SDS011;47353;51.614;5.530;2022-09-16T05:06:49;2.95;;;1.50;;
59788;SDS011;47353;51.614;5.530;2022-09-16T05:09:15;3.90;;;1.20;;
59788;SDS011;47353;51.614;5.530;2022-09-16T05:11:40;4.97;;;1.45;;
59788;SDS011;47353;51.614;5.530;2022-09-16T05:14:07;5.15;;;1.48;;
59788;SDS011;47353;51.614;5.530;2022-09-16T05:16:37;5.38;;;1.50;;
59788;SDS011;47353;51.614;5.530;2022-09-16T05:19:02;5.40;;;1.25;;
59788;SDS011;47353;51.614;5.530;2022-09-16T05:21:29;6.38;;;1.27;;
59788;SDS011;47353;51.614;5.530;2022-09-16T05:24:01;5.65;;;1.50;;
59788;SDS011;47353;51.614;5.530;2022-09-16T05:26:28;5.70;;;1.50;;
59788;SDS011;47353;51.614;5.530;2022-09-16T05:28:58;4.32;;;1.45;;
59788;SDS011;47353;51.614;5.530;2022-09-16T05:31:26;4.68;;;1.30;;
59788;SDS011;47353;51.614;5.530;2022-09-16T05:33:53;3.78;;;1.10;;
59788;SDS011;47353;51.614;5.530;2022-09-16T05:36:22;5.78;;;1.60;;
59788;SDS011;47353;51.614;5.530;2022-09-16T05:38:48;5.13;;;1.60;;
59788;SDS011;47353;51.614;5.530;2022-09-16T05:41:14;6.90;;;2.33;;
59788;SDS011;47353;51.614;5.530;2022-09-16T05:43:40;5.05;;;1.98;;
59788;SDS011;47353;51.614;5.530;2022-09-16T05:46:05;4.68;;;1.92;;
59788;SDS011;47353;51.614;5.530;2022-09-16T05:48:32;7.25;;;2.17;;
59788;SDS011;47353;51.614;5.530;2022-09-16T05:51:02;6.32;;;2.13;;
59788;SDS011;47353;51.614;5.530;2022-09-16T05:53:30;5.75;;;1.55;;
59788;SDS011;47353;51.614;5.530;2022-09-16T05:55:57;12.02;;;2.30;;
59788;SDS011;47353;51.614;5.530;2022-09-16T05:58:23;8.45;;;2.53;;
59788;SDS011;47353;51.614;5.530;2022-09-16T06:00:50;8.27;;;2.17;;
59788;SDS011;47353;51.614;5.530;2022-09-16T06:03:16;5.65;;;1.67;;
59788;SDS011;47353;51.614;5.530;2022-09-16T06:05:41;4.50;;;1.30;;
59788;SDS011;47353;51.614;5.530;2022-09-16T06:08:07;7.50;;;1.50;;
59788;SDS011;47353;51.614;5.530;2022-09-16T06:10:36;6.68;;;1.45;;
59788;SDS011;47353;51.614;5.530;2022-09-16T06:13:02;4.95;;;1.30;;
59788;SDS011;47353;51.614;5.530;2022-09-16T06:15:28;1.70;;;1.02;;
59788;SDS011;47353;51.614;5.530;2022-09-16T06:17:53;5.80;;;1.40;;
59788;SDS011;47353;51.614;5.530;2022-09-16T06:20:18;5.50;;;1.40;;
59788;SDS011;47353;51.614;5.530;2022-09-16T06:22:44;6.03;;;1.48;;
59788;SDS011;47353;51.614;5.530;2022-09-16T06:25:10;8.20;;;2.72;;
59788;SDS011;47353;51.614;5.530;2022-09-16T06:27:35;9.13;;;2.50;;
59788;SDS011;47353;51.614;5.530;2022-09-16T06:30:02;11.15;;;3.25;;
59788;SDS011;47353;51.614;5.530;2022-09-16T06:32:31;6.82;;;2.88;;
59788;SDS011;47353;51.614;5.530;2022-09-16T06:34:56;7.88;;;3.05;;
59788;SDS011;47353;51.614;5.530;2022-09-16T06:37:22;9.30;;;3.25;;
59788;SDS011;47353;51.614;5.530;2022-09-16T06:39:47;10.30;;;3.20;;
59788;SDS011;47353;51.614;5.530;2022-09-16T06:42:12;8.95;;;3.30;;
59788;SDS011;47353;51.614;5.530;2022-09-16T06:44:38;6.82;;;2.83;;
59788;SDS011;47353;51.614;5.530;2022-09-16T06:47:03;6.75;;;2.40;;
59788;SDS011;47353;51.614;5.530;2022-09-16T06:49:29;7.63;;;2.80;;
59788;SDS011;47353;51.614;5.530;2022-09-16T06:51:54;6.70;;;2.30;;
59788;SDS011;47353;51.614;5.530;2022-09-16T06:54:19;8.02;;;2.63;;
59788;SDS011;47353;51.614;5.530;2022-09-16T06:56:45;6.97;;;2.33;;
59788;SDS011;47353;51.614;5.530;2022-09-16T06:59:10;7.72;;;2.65;;
59788;SDS011;47353;51.614;5.530;2022-09-16T07:01:38;8.30;;;2.95;;
59788;SDS011;47353;51.614;5.530;2022-09-16T07:04:05;7.82;;;3.47;;
59788;SDS011;47353;51.614;5.530;2022-09-16T07:06:34;8.55;;;2.97;;
59788;SDS011;47353;51.614;5.530;2022-09-16T07:08:59;11.38;;;3.13;;
59788;SDS011;47353;51.614;5.530;2022-09-16T07:11:25;7.43;;;2.20;;
59788;SDS011;47353;51.614;5.530;2022-09-16T07:13:50;6.68;;;2.05;;
59788;SDS011;47353;51.614;5.530;2022-09-16T07:16:17;5.63;;;1.98;;
59788;SDS011;47353;51.614;5.530;2022-09-16T07:18:51;8.00;;;1.95;;
59788;SDS011;47353;51.614;5.530;2022-09-16T07:21:18;6.70;;;2.35;;
59788;SDS011;47353;51.614;5.530;2022-09-16T07:23:45;6.97;;;2.70;;
59788;SDS011;47353;51.614;5.530;2022-09-16T07:26:14;8.30;;;2.45;;
59788;SDS011;47353;51.614;5.530;2022-09-16T07:28:42;8.77;;;3.10;;
59788;SDS011;47353;51.614;5.530;2022-09-16T07:31:11;5.57;;;2.22;;
59788;SDS011;47353;51.614;5.530;2022-09-16T07:33:39;5.82;;;2.40;;
59788;SDS011;47353;51.614;5.530;2022-09-16T07:36:08;6.22;;;1.83;;
59788;SDS011;47353;51.614;5.530;2022-09-16T07:38:34;6.63;;;1.77;;
59788;SDS011;47353;51.614;5.530;2022-09-16T07:41:10;4.88;;;1.50;;
59788;SDS011;47353;51.614;5.530;2022-09-16T07:43:38;6.82;;;1.60;;
59788;SDS011;47353;51.614;5.530;2022-09-16T07:46:04;7.10;;;1.20;;
59788;SDS011;47353;51.614;5.530;2022-09-16T07:48:31;3.80;;;1.10;;
59788;SDS011;47353;51.614;5.530;2022-09-16T07:50:58;4.68;;;1.30;;
59788;SDS011;47353;51.614;5.530;2022-09-16T07:53:26;5.30;;;1.77;;
59788;SDS011;47353;51.614;5.530;2022-09-16T07:55:53;8.05;;;1.70;;
59788;SDS011;47353;51.614;5.530;2022-09-16T07:58:20;5.63;;;1.60;;
59788;SDS011;47353;51.614;5.530;2022-09-16T08:00:46;3.70;;;1.33;;
59788;SDS011;47353;51.614;5.530;2022-09-16T08:03:13;3.78;;;1.10;;
59788;SDS011;47353;51.614;5.530;2022-09-16T08:05:38;6.07;;;1.50;;
59788;SDS011;47353;51.614;5.530;2022-09-16T08:08:04;7.40;;;2.10;;
59788;SDS011;47353;51.614;5.530;2022-09-16T08:10:29;3.97;;;1.52;;
59788;SDS011;47353;51.614;5.530;2022-09-16T08:12:55;4.70;;;1.30;;
59788;SDS011;47353;51.614;5.530;2022-09-16T08:15:20;6.88;;;1.70;;
59788;SDS011;47353;51.614;5.530;2022-09-16T08:17:46;3.65;;;1.30;;
59788;SDS011;47353;51.614;5.530;2022-09-16T08:20:11;5.68;;;2.10;;
59788;SDS011;47353;51.614;5.530;2022-09-16T08:22:36;5.72;;;1.50;;
59788;SDS011;47353;51.614;5.530;2022-09-16T08:25:02;7.18;;;1.77;;
59788;SDS011;47353;51.614;5.530;2022-09-16T08:27:27;5.05;;;1.35;;
59788;SDS011;47353;51.614;5.530;2022-09-16T08:29:53;6.28;;;1.80;;
59788;SDS011;47353;51.614;5.530;2022-09-16T08:32:18;5.10;;;1.67;;
59788;SDS011;47353;51.614;5.530;2022-09-16T08:34:43;1.70;;;0.88;;
59788;SDS011;47353;51.614;5.530;2022-09-16T08:37:09;4.47;;;1.40;;
59788;SDS011;47353;51.614;5.530;2022-09-16T08:39:34;4.80;;;1.40;;
59788;SDS011;47353;51.614;5.530;2022-09-16T08:50:21;3.58;;;0.93;;
59788;SDS011;47353;51.614;5.530;2022-09-16T08:52:50;6.27;;;1.47;;
59788;SDS011;47353;51.614;5.530;2022-09-16T08:55:22;2.90;;;0.80;;
59788;SDS011;47353;51.614;5.530;2022-09-16T09:00:26;3.15;;;0.88;;
59788;SDS011;47353;51.614;5.530;2022-09-16T09:05:21;2.88;;;1.08;;
59788;SDS011;47353;51.614;5.530;2022-09-16T09:10:50;3.95;;;1.30;;
59788;SDS011;47353;51.614;5.530;2022-09-16T09:16:20;3.75;;;1.17;;
59788;SDS011;47353;51.614;5.530;2022-09-16T09:21:53;3.40;;;0.90;;
59788;SDS011;47353;51.614;5.530;2022-09-16T09:27:25;3.38;;;0.80;;
59788;SDS011;47353;51.614;5.530;2022-09-16T09:32:46;2.67;;;0.63;;
59788;SDS011;47353;51.614;5.530;2022-09-16T09:38:35;3.92;;;0.77;;
59788;SDS011;47353;51.614;5.530;2022-09-16T09:41:30;2.10;;;0.35;;
59788;SDS011;47353;51.614;5.530;2022-09-16T09:46:45;4.00;;;0.43;;
59788;SDS011;47353;51.614;5.530;2022-09-16T09:49:24;3.20;;;0.55;;
59788;SDS011;47353;51.614;5.530;2022-09-16T09:52:01;1.05;;;0.40;;
59788;SDS011;47353;51.614;5.530;2022-09-16T09:54:36;2.58;;;0.55;;
59788;SDS011;47353;51.614;5.530;2022-09-16T09:57:04;3.10;;;0.57;;
59788;SDS011;47353;51.614;5.530;2022-09-16T09:59:44;4.20;;;0.70;;
59788;SDS011;47353;51.614;5.530;2022-09-16T10:02:18;2.17;;;0.50;;
59788;SDS011;47353;51.614;5.530;2022-09-16T10:04:46;5.80;;;0.70;;
59788;SDS011;47353;51.614;5.530;2022-09-16T10:07:12;5.63;;;0.95;;
59788;SDS011;47353;51.614;5.530;2022-09-16T10:10:00;5.55;;;0.88;;
59788;SDS011;47353;51.614;5.530;2022-09-16T10:12:39;3.80;;;0.55;;
59788;SDS011;47353;51.614;5.530;2022-09-16T10:15:05;5.65;;;0.93;;
59788;SDS011;47353;51.614;5.530;2022-09-16T10:17:31;3.05;;;0.80;;
59788;SDS011;47353;51.614;5.530;2022-09-16T10:22:29;3.50;;;0.65;;
59788;SDS011;47353;51.614;5.530;2022-09-16T10:24:57;3.80;;;0.73;;
59788;SDS011;47353;51.614;5.530;2022-09-16T10:27:32;4.32;;;0.80;;
59788;SDS011;47353;51.614;5.530;2022-09-16T10:32:50;4.45;;;0.68;;
59788;SDS011;47353;51.614;5.530;2022-09-16T10:35:21;2.90;;;0.95;;
59788;SDS011;47353;51.614;5.530;2022-09-16T10:37:50;5.07;;;1.00;;
59788;SDS011;47353;51.614;5.530;2022-09-16T10:40:37;4.60;;;1.10;;
59788;SDS011;47353;51.614;5.530;2022-09-16T10:43:04;4.03;;;0.90;;
59788;SDS011;47353;51.614;5.530;2022-09-16T10:45:35;2.25;;;0.90;;
59788;SDS011;47353;51.614;5.530;2022-09-16T10:48:10;2.33;;;0.70;;
59788;SDS011;47353;51.614;5.530;2022-09-16T10:50:38;4.75;;;0.90;;
59788;SDS011;47353;51.614;5.530;2022-09-16T10:53:18;4.05;;;0.60;;
59788;SDS011;47353;51.614;5.530;2022-09-16T10:55:54;3.38;;;0.77;;
59788;SDS011;47353;51.614;5.530;2022-09-16T10:58:22;1.55;;;0.60;;
59788;SDS011;47353;51.614;5.530;2022-09-16T11:11:45;4.82;;;0.98;;
59788;SDS011;47353;51.614;5.530;2022-09-16T11:16:48;3.15;;;0.80;;
59788;SDS011;47353;51.614;5.530;2022-09-16T11:19:40;3.65;;;0.90;;
59788;SDS011;47353;51.614;5.530;2022-09-16T11:28:16;2.33;;;0.70;;
59788;SDS011;47353;51.614;5.530;2022-09-16T11:31:06;3.42;;;0.90;;
59788;SDS011;47353;51.614;5.530;2022-09-16T11:36:50;2.20;;;0.60;;
59788;SDS011;47353;51.614;5.530;2022-09-16T11:39:28;6.13;;;1.00;;
59788;SDS011;47353;51.614;5.530;2022-09-16T11:42:31;3.85;;;0.77;;
59788;SDS011;47353;51.614;5.530;2022-09-16T11:51:32;4.63;;;1.25;;
59788;SDS011;47353;51.614;5.530;2022-09-16T11:54:05;3.38;;;1.30;;
59788;SDS011;47353;51.614;5.530;2022-09-16T11:56:51;4.32;;;1.02;;
59788;SDS011;47353;51.614;5.530;2022-09-16T12:02:15;4.25;;;1.25;;
59788;SDS011;47353;51.614;5.530;2022-09-16T12:05:06;5.93;;;1.58;;
59788;SDS011;47353;51.614;5.530;2022-09-16T12:12:54;1.48;;;0.50;;
59788;SDS011;47353;51.614;5.530;2022-09-16T12:15:44;4.88;;;1.33;;
59788;SDS011;47353;51.614;5.530;2022-09-16T12:18:16;1.92;;;0.40;;
59788;SDS011;47353;51.614;5.530;2022-09-16T12:20:46;1.38;;;0.40;;
59788;SDS011;47353;51.614;5.530;2022-09-16T12:23:41;2.85;;;0.40;;
59788;SDS011;47353;51.614;5.530;2022-09-16T12:26:16;0.80;;;0.30;;
59788;SDS011;47353;51.614;5.530;2022-09-16T12:31:35;1.65;;;0.40;;
59788;SDS011;47353;51.614;5.530;2022-09-16T12:36:37;1.52;;;0.45;;
59788;SDS011;47353;51.614;5.530;2022-09-16T12:39:13;1.58;;;0.50;;
59788;SDS011;47353;51.614;5.530;2022-09-16T12:58:21;3.10;;;0.77;;
59788;SDS011;47353;51.614;5.530;2022-09-16T13:01:11;2.30;;;0.80;;
59788;SDS011;47353;51.614;5.530;2022-09-16T13:03:41;3.45;;;0.80;;
59788;SDS011;47353;51.614;5.530;2022-09-16T13:06:19;3.70;;;0.90;;
59788;SDS011;47353;51.614;5.530;2022-09-16T13:08:48;3.13;;;0.70;;
59788;SDS011;47353;51.614;5.530;2022-09-16T13:11:19;3.90;;;0.70;;
59788;SDS011;47353;51.614;5.530;2022-09-16T13:13:48;3.85;;;0.73;;
59788;SDS011;47353;51.614;5.530;2022-09-16T13:16:25;4.43;;;1.08;;
59788;SDS011;47353;51.614;5.530;2022-09-16T13:19:03;4.00;;;0.80;;
59788;SDS011;47353;51.614;5.530;2022-09-16T13:21:36;4.85;;;0.80;;
59788;SDS011;47353;51.614;5.530;2022-09-16T13:24:09;4.55;;;0.80;;
59788;SDS011;47353;51.614;5.530;2022-09-16T13:26:37;3.05;;;0.70;;
59788;SDS011;47353;51.614;5.530;2022-09-16T13:29:21;4.47;;;0.77;;
59788;SDS011;47353;51.614;5.530;2022-09-16T13:31:48;3.55;;;0.93;;
59788;SDS011;47353;51.614;5.530;2022-09-16T13:34:14;5.47;;;0.95;;
59788;SDS011;47353;51.614;5.530;2022-09-16T13:36:41;3.72;;;0.98;;
59788;SDS011;47353;51.614;5.530;2022-09-16T13:39:11;5.00;;;2.30;;
59788;SDS011;47353;51.614;5.530;2022-09-16T13:41:40;4.35;;;1.90;;
59788;SDS011;47353;51.614;5.530;2022-09-16T13:44:27;4.05;;;1.23;;
59788;SDS011;47353;51.614;5.530;2022-09-16T13:47:46;3.75;;;1.20;;
59788;SDS011;47353;51.614;5.530;2022-09-16T13:49:59;4.05;;;1.30;;
59788;SDS011;47353;51.614;5.530;2022-09-16T13:52:46;4.35;;;1.10;;
59788;SDS011;47353;51.614;5.530;2022-09-16T13:55:20;4.13;;;1.15;;
59788;SDS011;47353;51.614;5.530;2022-09-16T14:00:30;3.72;;;1.02;;
59788;SDS011;47353;51.614;5.530;2022-09-16T14:05:52;4.40;;;1.25;;
59788;SDS011;47353;51.614;5.530;2022-09-16T14:11:44;3.05;;;1.10;;
59788;SDS011;47353;51.614;5.530;2022-09-16T14:13:55;4.00;;;1.30;;
59788;SDS011;47353;51.614;5.530;2022-09-16T14:16:26;4.40;;;1.13;;
59788;SDS011;47353;51.614;5.530;2022-09-16T14:19:02;1.90;;;0.75;;
59788;SDS011;47353;51.614;5.530;2022-09-16T14:21:30;2.30;;;0.80;;
59788;SDS011;47353;51.614;5.530;2022-09-16T14:24:06;3.92;;;0.80;;
59788;SDS011;47353;51.614;5.530;2022-09-16T14:26:48;4.60;;;1.20;;
59788;SDS011;47353;51.614;5.530;2022-09-16T14:29:15;4.13;;;1.40;;
59788;SDS011;47353;51.614;5.530;2022-09-16T14:31:40;5.47;;;1.38;;
59788;SDS011;47353;51.614;5.530;2022-09-16T14:34:10;3.95;;;0.90;;
59788;SDS011;47353;51.614;5.530;2022-09-16T14:36:40;3.53;;;0.90;;
59788;SDS011;47353;51.614;5.530;2022-09-16T14:39:12;3.05;;;0.80;;
59788;SDS011;47353;51.614;5.530;2022-09-16T14:41:52;4.13;;;0.90;;
59788;SDS011;47353;51.614;5.530;2022-09-16T14:44:27;4.47;;;1.08;;
59788;SDS011;47353;51.614;5.530;2022-09-16T14:47:26;5.22;;;1.30;;
59788;SDS011;47353;51.614;5.530;2022-09-16T14:49:56;4.43;;;1.05;;
59788;SDS011;47353;51.614;5.530;2022-09-16T14:52:28;7.53;;;1.13;;
59788;SDS011;47353;51.614;5.530;2022-09-16T14:54:55;4.72;;;1.00;;
59788;SDS011;47353;51.614;5.530;2022-09-16T14:57:22;3.80;;;0.98;;
59788;SDS011;47353;51.614;5.530;2022-09-16T14:59:50;3.70;;;1.00;;
59788;SDS011;47353;51.614;5.530;2022-09-16T15:02:19;4.03;;;1.23;;
59788;SDS011;47353;51.614;5.530;2022-09-16T15:04:52;4.80;;;1.42;;
59788;SDS011;47353;51.614;5.530;2022-09-16T15:07:22;4.35;;;0.90;;
59788;SDS011;47353;51.614;5.530;2022-09-16T15:09:57;6.70;;;1.33;;
59788;SDS011;47353;51.614;5.530;2022-09-16T15:12:28;4.70;;;1.10;;
59788;SDS011;47353;51.614;5.530;2022-09-16T15:14:57;2.55;;;0.88;;
59788;SDS011;47353;51.614;5.530;2022-09-16T15:17:23;6.05;;;1.38;;
59788;SDS011;47353;51.614;5.530;2022-09-16T15:19:53;3.65;;;1.23;;
59788;SDS011;47353;51.614;5.530;2022-09-16T15:22:21;4.60;;;1.40;;
59788;SDS011;47353;51.614;5.530;2022-09-16T15:24:49;6.82;;;1.45;;
59788;SDS011;47353;51.614;5.530;2022-09-16T15:27:21;3.88;;;1.10;;
59788;SDS011;47353;51.614;5.530;2022-09-16T15:29:53;5.25;;;1.27;;
59788;SDS011;47353;51.614;5.530;2022-09-16T15:32:22;4.93;;;1.40;;
59788;SDS011;47353;51.614;5.530;2022-09-16T15:37:52;3.80;;;0.98;;
59788;SDS011;47353;51.614;5.530;2022-09-16T15:45:42;6.85;;;1.13;;
59788;SDS011;47353;51.614;5.530;2022-09-16T15:50:44;9.27;;;1.20;;
59788;SDS011;47353;51.614;5.530;2022-09-16T15:58:47;6.25;;;0.95;;
59788;SDS011;47353;51.614;5.530;2022-09-16T16:01:19;5.78;;;1.10;;
59788;SDS011;47353;51.614;5.530;2022-09-16T16:04:02;4.03;;;0.93;;
59788;SDS011;47353;51.614;5.530;2022-09-16T16:11:53;9.88;;;1.48;;
59788;SDS011;47353;51.614;5.530;2022-09-16T16:14:20;4.43;;;1.00;;
59788;SDS011;47353;51.614;5.530;2022-09-16T16:16:47;4.22;;;0.90;;
59788;SDS011;47353;51.614;5.530;2022-09-16T16:19:12;4.82;;;0.90;;
59788;SDS011;47353;51.614;5.530;2022-09-16T16:21:39;10.10;;;1.30;;
59788;SDS011;47353;51.614;5.530;2022-09-16T16:24:08;5.20;;;1.05;;
59788;SDS011;47353;51.614;5.530;2022-09-16T16:26:33;7.03;;;1.33;;
59788;SDS011;47353;51.614;5.530;2022-09-16T16:28:59;3.22;;;1.05;;
59788;SDS011;47353;51.614;5.530;2022-09-16T16:31:25;11.40;;;1.30;;
59788;SDS011;47353;51.614;5.530;2022-09-16T16:33:50;6.60;;;1.25;;
59788;SDS011;47353;51.614;5.530;2022-09-16T16:36:17;4.07;;;0.93;;
59788;SDS011;47353;51.614;5.530;2022-09-16T16:38:43;8.73;;;1.23;;
59788;SDS011;47353;51.614;5.530;2022-09-16T16:41:10;4.63;;;1.10;;
59788;SDS011;47353;51.614;5.530;2022-09-16T16:43:36;8.13;;;1.30;;
59788;SDS011;47353;51.614;5.530;2022-09-16T16:46:02;7.55;;;1.30;;
59788;SDS011;47353;51.614;5.530;2022-09-16T16:48:27;5.53;;;1.33;;
59788;SDS011;47353;51.614;5.530;2022-09-16T16:51:00;5.93;;;1.75;;
59788;SDS011;47353;51.614;5.530;2022-09-16T16:53:27;7.07;;;1.40;;
59788;SDS011;47353;51.614;5.530;2022-09-16T16:55:53;7.70;;;1.30;;
59788;SDS011;47353;51.614;5.530;2022-09-16T16:58:26;5.82;;;1.08;;
59788;SDS011;47353;51.614;5.530;2022-09-16T17:00:54;8.30;;;1.30;;
59788;SDS011;47353;51.614;5.530;2022-09-16T17:03:19;7.13;;;1.30;;
59788;SDS011;47353;51.614;5.530;2022-09-16T17:05:46;6.47;;;1.33;;
59788;SDS011;47353;51.614;5.530;2022-09-16T17:08:12;6.95;;;1.20;;
59788;SDS011;47353;51.614;5.530;2022-09-16T17:10:37;6.28;;;1.10;;
59788;SDS011;47353;51.614;5.530;2022-09-16T17:13:05;5.57;;;0.93;;
59788;SDS011;47353;51.614;5.530;2022-09-16T17:15:30;7.43;;;1.23;;
59788;SDS011;47353;51.614;5.530;2022-09-16T17:17:56;6.13;;;1.08;;
59788;SDS011;47353;51.614;5.530;2022-09-16T17:20:21;5.68;;;1.30;;
59788;SDS011;47353;51.614;5.530;2022-09-16T17:22:47;6.45;;;1.10;;
59788;SDS011;47353;51.614;5.530;2022-09-16T17:25:12;7.68;;;1.55;;
59788;SDS011;47353;51.614;5.530;2022-09-16T17:27:37;6.50;;;1.50;;
59788;SDS011;47353;51.614;5.530;2022-09-16T17:30:03;7.45;;;1.27;;
59788;SDS011;47353;51.614;5.530;2022-09-16T17:32:29;6.97;;;1.40;;
59788;SDS011;47353;51.614;5.530;2022-09-16T17:34:54;7.65;;;1.27;;
59788;SDS011;47353;51.614;5.530;2022-09-16T17:37:20;6.13;;;1.38;;
59788;SDS011;47353;51.614;5.530;2022-09-16T17:39:45;8.40;;;1.30;;
59788;SDS011;47353;51.614;5.530;2022-09-16T17:42:12;4.15;;;1.10;;
59788;SDS011;47353;51.614;5.530;2022-09-16T17:44:37;7.32;;;1.10;;
59788;SDS011;47353;51.614;5.530;2022-09-16T17:47:03;8.20;;;1.63;;
59788;SDS011;47353;51.614;5.530;2022-09-16T17:49:28;6.75;;;1.42;;
59788;SDS011;47353;51.614;5.530;2022-09-16T17:51:54;6.68;;;1.40;;
59788;SDS011;47353;51.614;5.530;2022-09-16T17:54:20;5.82;;;1.52;;
59788;SDS011;47353;51.614;5.530;2022-09-16T17:56:46;6.75;;;1.60;;
59788;SDS011;47353;51.614;5.530;2022-09-16T17:59:12;6.32;;;1.60;;
59788;SDS011;47353;51.614;5.530;2022-09-16T18:01:39;7.82;;;1.80;;
59788;SDS011;47353;51.614;5.530;2022-09-16T18:04:05;7.05;;;1.40;;